createdAt,value
2018-06-25T00:00:34.584Z,3.40
2018-06-25T00:01:34.561Z,3.50
2018-06-25T00:02:34.546Z,3.20
2018-06-25T00:03:34.599Z,3.50
2018-06-25T00:04:34.480Z,3.30
2018-06-25T00:05:34.465Z,3.20
2018-06-25T00:06:34.500Z,3.50
2018-06-25T00:07:34.412Z,3.10
2018-06-25T00:08:35.437Z,3.10
2018-06-25T00:09:34.349Z,3.20
2018-06-25T00:10:34.325Z,3.40
2018-06-25T00:11:34.303Z,3.50
2018-06-25T00:12:34.346Z,3.30
2018-06-25T00:13:34.250Z,3.30
2018-06-25T00:14:34.223Z,3.50
2018-06-25T00:15:34.196Z,3.10
2018-06-25T00:16:20.025Z,3.70
2018-06-25T00:17:19.961Z,3.10
2018-06-25T00:18:20.057Z,3.00
2018-06-25T00:19:19.924Z,3.00
2018-06-25T00:20:19.886Z,2.80
2018-06-25T00:21:19.864Z,3.20
2018-06-25T00:22:19.938Z,2.90
2018-06-25T00:40:46.980Z,3.10
2018-06-25T00:41:45.036Z,2.80
2018-06-25T00:42:47.145Z,2.90
2018-06-25T00:43:45.009Z,2.70
2018-06-25T00:44:47.046Z,2.80
2018-06-25T00:45:44.964Z,3.20
2018-06-25T00:46:49.527Z,3.40
2018-06-25T00:47:44.874Z,3.60
2018-06-25T00:49:01.545Z,3.60
2018-06-25T00:49:44.822Z,2.90
2018-06-25T00:51:16.580Z,3.30
2018-06-25T00:51:44.758Z,3.10
2018-06-25T00:52:44.739Z,3.40
2018-06-25T00:53:50.583Z,3.30
2018-06-25T00:54:44.689Z,3.30
2018-06-25T00:55:44.656Z,3.00
2018-06-25T01:17:50.082Z,3.50
2018-06-25T01:18:50.034Z,3.90
2018-06-25T01:19:49.939Z,3.50
2018-06-25T01:20:56.967Z,3.50
2018-06-25T01:21:49.909Z,3.40
2018-06-25T01:22:52.025Z,3.40
2018-06-25T01:23:49.831Z,3.20
2018-06-25T01:24:50.899Z,3.50
2018-06-25T01:25:49.771Z,3.40
2018-06-25T01:26:49.817Z,3.70
2018-06-25T01:27:49.724Z,3.40
2018-06-25T01:28:50.720Z,4.40
2018-06-25T01:29:49.681Z,3.70
2018-06-25T01:30:51.759Z,3.60
2018-06-25T01:31:49.618Z,3.30
2018-06-25T02:36:43.785Z,5.40
2018-06-25T02:37:43.782Z,5.50
2018-06-25T02:38:43.846Z,5.40
2018-06-25T02:39:43.676Z,4.90
2018-06-25T02:40:43.640Z,5.70
2018-06-25T02:41:43.679Z,5.10
2018-06-25T02:42:43.611Z,5.20
2018-06-25T02:43:43.618Z,5.20
2018-06-25T02:44:43.548Z,5.40
2018-06-25T02:45:43.540Z,5.30
2018-06-25T02:47:29.344Z,5.30
2018-06-25T02:48:29.341Z,5.50
2018-06-25T02:49:28.927Z,5.20
2018-06-25T02:50:28.954Z,5.20
2018-06-25T02:51:28.912Z,5.50
2018-06-25T02:52:28.966Z,5.60
2018-06-25T02:53:28.864Z,6.20
2018-06-25T02:54:28.837Z,5.80
2018-06-25T02:56:14.591Z,6.10
2018-06-25T02:57:14.514Z,5.70
2018-06-25T02:58:14.415Z,5.70
2018-06-25T02:59:42.185Z,6.00
2018-06-25T03:00:14.377Z,6.20
2018-06-25T03:01:14.472Z,6.10
2018-06-25T03:02:14.314Z,6.40
2018-06-25T03:03:20.191Z,6.60
2018-06-25T03:04:14.286Z,5.80
2018-06-25T03:05:16.352Z,6.70
2018-06-25T03:06:14.221Z,6.90
2018-06-25T03:07:15.203Z,7.20
2018-06-25T03:08:14.191Z,7.50
2018-06-25T03:09:14.137Z,7.10
2018-06-25T03:10:14.114Z,7.30
2018-06-25T03:49:45.340Z,7.60
2018-06-25T03:50:43.527Z,6.60
2018-06-25T03:51:43.493Z,6.40
2018-06-25T03:52:43.471Z,6.70
2018-06-25T03:53:43.464Z,6.60
2018-06-25T03:54:43.419Z,6.60
2018-06-25T03:55:43.455Z,6.50
2018-06-25T03:56:43.366Z,6.20
2018-06-25T03:57:43.337Z,6.80
2018-06-25T03:58:43.317Z,6.50
2018-06-25T03:59:43.288Z,6.70
2018-06-25T04:00:43.255Z,6.50
2018-06-25T04:01:43.221Z,7.10
2018-06-25T04:02:43.204Z,6.50
2018-06-25T04:03:43.187Z,6.40
2018-06-25T04:04:43.151Z,6.30
2018-06-25T04:05:43.131Z,6.30
2018-06-25T04:06:43.107Z,6.30
2018-06-25T04:07:43.128Z,6.50
2018-06-25T04:08:43.034Z,6.90
2018-06-25T04:09:43.035Z,6.80
2018-06-25T04:10:42.992Z,6.40
2018-06-25T04:12:29.868Z,6.50
2018-06-25T04:13:29.865Z,7.10
2018-06-25T04:14:29.760Z,6.70
2018-06-25T04:15:29.762Z,6.80
2018-06-25T04:16:29.710Z,6.60
2018-06-25T04:17:29.804Z,6.30
2018-06-25T04:18:29.642Z,6.40
2018-06-25T04:19:29.685Z,6.10
2018-06-25T04:20:29.592Z,6.30
2018-06-25T04:21:29.610Z,6.20
2018-06-25T04:22:29.548Z,6.00
2018-06-25T04:23:29.626Z,6.70
2018-06-25T04:24:29.484Z,6.60
2018-06-25T04:25:29.528Z,6.50
2018-06-25T04:26:29.444Z,6.50
2018-06-25T04:27:29.444Z,7.20
2018-06-25T04:28:29.368Z,6.90
2018-06-25T04:29:29.459Z,7.10
2018-06-25T04:30:29.322Z,7.20
2018-06-25T04:32:15.445Z,7.20
2018-06-25T04:33:15.445Z,6.80
2018-06-25T04:34:15.351Z,6.80
2018-06-25T04:35:15.372Z,7.20
2018-06-25T04:36:15.293Z,6.20
2018-06-25T04:37:15.386Z,6.80
2018-06-25T04:38:15.247Z,6.50
2018-06-25T04:39:15.307Z,7.30
2018-06-25T04:40:15.203Z,6.70
2018-06-25T04:41:15.218Z,6.80
2018-06-25T04:42:15.141Z,6.60
2018-06-25T04:43:15.198Z,7.10
2018-06-25T04:44:15.084Z,7.00
2018-06-25T04:45:15.102Z,7.60
2018-06-25T04:46:15.036Z,7.10
2018-06-25T04:47:16.039Z,7.40
2018-06-25T04:48:14.990Z,7.00
2018-06-25T04:49:15.032Z,7.90
2018-06-25T04:50:14.938Z,7.20
2018-06-25T04:51:14.961Z,8.00
2018-06-25T04:52:14.869Z,7.40
2018-06-25T04:53:14.950Z,7.50
2018-06-25T04:54:14.831Z,7.70
2018-06-25T04:55:14.888Z,7.50
2018-06-25T04:56:14.774Z,8.10
2018-06-25T04:57:14.795Z,7.50
2018-06-25T04:58:14.712Z,6.90
2018-06-25T04:59:14.762Z,7.70
2018-06-25T05:00:14.671Z,7.30
2018-06-25T05:01:14.700Z,7.90
2018-06-25T05:02:14.611Z,7.80
2018-06-25T05:03:14.681Z,7.50
2018-06-25T05:04:14.550Z,7.90
2018-06-25T05:05:14.594Z,7.80
2018-06-25T05:06:14.496Z,8.00
2018-06-25T05:07:14.514Z,8.20
2018-06-25T05:08:14.449Z,7.80
2018-06-25T05:09:14.542Z,7.50
2018-06-25T05:10:14.405Z,8.50
2018-06-25T05:11:14.456Z,7.80
2018-06-25T05:12:14.337Z,7.70
2018-06-25T05:13:14.345Z,7.40
2018-06-25T05:14:14.287Z,8.30
2018-06-25T05:15:14.359Z,7.90
2018-06-25T05:16:14.229Z,7.80
2018-06-25T05:17:14.267Z,8.00
2018-06-25T05:18:14.178Z,7.50
2018-06-25T05:19:14.181Z,7.50
2018-06-25T05:20:14.115Z,7.70
2018-06-25T05:21:14.190Z,8.20
2018-06-25T05:22:14.070Z,8.20
2018-06-25T05:23:15.130Z,8.40
2018-06-25T05:24:14.011Z,7.70
2018-06-25T05:25:14.021Z,8.50
2018-06-25T05:26:13.961Z,7.80
2018-06-25T05:27:14.034Z,8.30
2018-06-25T05:28:13.912Z,8.40
2018-06-25T05:29:13.972Z,7.70
2018-06-25T05:30:13.874Z,7.90
2018-06-25T05:31:59.330Z,7.60
2018-06-25T05:32:59.327Z,7.90
2018-06-25T05:33:59.226Z,8.20
2018-06-25T05:34:59.223Z,7.80
2018-06-25T05:35:59.174Z,8.10
2018-06-25T05:36:59.227Z,7.80
2018-06-25T05:37:59.120Z,8.90
2018-06-25T05:38:59.178Z,7.60
2018-06-25T05:39:59.097Z,7.70
2018-06-25T05:40:59.174Z,7.70
2018-06-25T05:41:59.033Z,8.30
2018-06-25T05:43:00.092Z,7.40
2018-06-25T05:43:58.953Z,7.60
2018-06-25T05:44:58.994Z,7.50
2018-06-25T05:45:58.912Z,7.80
2018-06-25T05:46:58.995Z,7.80
2018-06-25T05:47:58.854Z,7.80
2018-06-25T05:48:58.915Z,7.10
2018-06-25T05:49:58.793Z,7.90
2018-06-25T05:50:58.815Z,8.10
2018-06-25T05:51:58.765Z,7.10
2018-06-25T05:52:58.845Z,7.80
2018-06-25T05:53:58.688Z,8.40
2018-06-25T05:54:58.739Z,7.70
2018-06-25T05:55:58.636Z,8.10
2018-06-25T05:56:58.624Z,7.30
2018-06-25T05:57:58.586Z,8.00
2018-06-25T05:58:58.748Z,8.10
2018-06-25T05:59:58.562Z,7.40
2018-06-25T06:00:58.588Z,7.70
2018-06-25T06:01:58.469Z,8.10
2018-06-25T06:02:58.505Z,8.50
2018-06-25T06:03:58.417Z,8.40
2018-06-25T06:04:58.507Z,8.70
2018-06-25T06:05:58.393Z,8.20
2018-06-25T06:06:58.419Z,7.90
2018-06-25T06:08:43.948Z,7.80
2018-06-25T06:09:44.139Z,7.90
2018-06-25T06:10:43.813Z,7.90
2018-06-25T06:11:43.790Z,8.30
2018-06-25T06:12:43.813Z,6.90
2018-06-25T06:13:43.718Z,7.30
2018-06-25T06:14:43.698Z,7.80
2018-06-25T06:15:43.670Z,7.30
2018-06-25T06:16:43.658Z,7.40
2018-06-25T06:17:43.603Z,7.20
2018-06-25T06:19:29.163Z,7.60
2018-06-25T06:20:29.136Z,6.70
2018-06-25T06:21:29.192Z,6.30
2018-06-25T06:22:29.053Z,6.30
2018-06-25T06:23:29.104Z,6.70
2018-06-25T06:24:29.074Z,6.20
2018-06-25T06:25:29.007Z,6.40
2018-06-25T06:26:28.953Z,6.80
2018-06-25T06:27:29.024Z,7.00
2018-06-25T06:28:28.888Z,6.50
2018-06-25T06:29:28.997Z,6.80
2018-06-25T06:30:28.826Z,7.30
2018-06-25T06:31:28.866Z,7.50
2018-06-25T06:32:28.802Z,7.90
2018-06-25T06:33:28.874Z,7.50
2018-06-25T06:34:28.749Z,7.10
2018-06-25T06:35:28.777Z,7.90
2018-06-25T06:36:28.697Z,7.80
2018-06-25T06:37:28.686Z,8.10
2018-06-25T06:38:28.633Z,7.00
2018-06-25T06:39:28.716Z,7.30
2018-06-25T06:40:28.570Z,7.50
2018-06-25T06:41:28.618Z,7.60
2018-06-25T06:42:28.519Z,7.40
2018-06-25T06:43:28.569Z,7.60
2018-06-25T06:44:28.464Z,7.60
2018-06-25T06:45:28.588Z,6.80
2018-06-25T06:46:28.403Z,7.00
2018-06-25T06:47:28.446Z,7.60
2018-06-25T06:48:28.400Z,7.40
2018-06-25T06:49:28.372Z,7.30
2018-06-25T06:50:28.306Z,7.20
2018-06-25T06:51:28.428Z,7.20
2018-06-25T06:53:14.295Z,6.80
2018-06-25T06:54:14.119Z,7.10
2018-06-25T06:55:14.329Z,7.50
2018-06-25T06:56:14.170Z,6.90
2018-06-25T06:57:14.020Z,7.30
2018-06-25T06:58:14.208Z,7.10
2018-06-25T06:59:13.956Z,7.00
2018-06-25T07:00:14.137Z,7.40
2018-06-25T07:01:13.921Z,7.40
2018-06-25T07:02:14.032Z,7.50
2018-06-25T07:03:13.957Z,7.10
2018-06-25T07:04:14.143Z,9.10
2018-06-25T07:05:14.030Z,7.20
2018-06-25T07:06:14.233Z,7.80
2018-06-25T07:07:14.100Z,7.00
2018-06-25T07:08:59.816Z,8.00
2018-06-25T07:09:59.933Z,6.90
2018-06-25T07:11:53.306Z,7.10
2018-06-25T07:12:53.324Z,6.00
2018-06-25T07:13:53.119Z,6.30
2018-06-25T07:14:53.202Z,6.80
2018-06-25T07:15:53.045Z,6.60
2018-06-25T07:16:53.158Z,6.80
2018-06-25T07:17:52.985Z,6.20
2018-06-25T07:18:53.029Z,6.30
2018-06-25T07:19:52.935Z,6.60
2018-06-25T07:20:53.187Z,7.30
2018-06-25T07:21:52.884Z,6.40
2018-06-25T07:22:53.021Z,6.30
2018-06-25T07:23:52.886Z,5.90
2018-06-25T07:24:52.864Z,6.90
2018-06-25T07:25:53.065Z,7.20
2018-06-25T07:26:53.089Z,6.80
2018-06-25T07:27:52.715Z,7.00
2018-06-25T07:28:52.808Z,6.90
2018-06-25T07:29:52.689Z,6.80
2018-06-25T07:30:53.006Z,7.10
2018-06-25T07:32:38.519Z,7.50
2018-06-25T07:33:38.524Z,7.60
2018-06-25T08:00:34.670Z,6.20
2018-06-25T08:51:56.851Z,4.80
2018-06-25T08:52:56.784Z,4.60
2018-06-25T08:53:56.725Z,5.40
2018-06-25T08:54:56.690Z,4.80
2018-06-25T08:55:56.736Z,4.90
2018-06-25T08:56:56.680Z,5.00
2018-06-25T08:57:56.633Z,4.70
2018-06-25T08:58:56.592Z,4.40
2018-06-25T08:59:56.637Z,4.90
2018-06-25T09:00:56.540Z,4.70
2018-06-25T09:01:56.567Z,4.30
2018-06-25T09:02:56.507Z,4.80
2018-06-25T09:03:56.466Z,4.00
2018-06-25T09:04:56.412Z,4.10
2018-06-25T09:05:56.488Z,4.50
2018-06-25T09:06:56.367Z,5.00
2018-06-25T09:07:56.395Z,4.80
2018-06-25T09:08:56.335Z,4.90
2018-06-25T09:10:42.294Z,5.20
2018-06-25T09:11:42.122Z,4.70
2018-06-25T09:12:42.195Z,5.20
2018-06-25T09:13:42.340Z,4.60
2018-06-25T09:14:41.895Z,5.20
2018-06-25T09:15:42.212Z,5.00
2018-06-25T09:16:41.832Z,4.70
2018-06-25T09:17:41.838Z,4.50
2018-06-25T09:18:41.761Z,4.50
2018-06-25T09:19:43.828Z,4.10
2018-06-25T09:21:27.477Z,4.40
2018-06-25T09:22:27.410Z,3.80
2018-06-25T09:23:27.341Z,4.30
2018-06-25T09:24:27.477Z,4.20
2018-06-25T09:25:27.298Z,4.30
2018-06-25T09:26:27.265Z,4.40
2018-06-25T09:27:27.223Z,4.60
2018-06-25T09:28:27.187Z,4.20
2018-06-25T09:29:27.169Z,4.20
2018-06-25T09:31:12.749Z,3.50
2018-06-25T09:32:12.569Z,3.30
2018-06-25T09:33:12.547Z,3.40
2018-06-25T09:34:12.663Z,3.50
2018-06-25T09:35:12.561Z,3.80
2018-06-25T09:36:12.585Z,4.00
2018-06-25T09:37:12.440Z,3.40
2018-06-25T09:38:12.473Z,4.80
2018-06-25T09:39:12.382Z,3.60
2018-06-25T09:40:12.524Z,3.50
2018-06-25T09:41:12.471Z,3.20
2018-06-25T09:42:12.417Z,3.30
2018-06-25T09:43:12.293Z,3.60
2018-06-25T09:44:12.265Z,3.80
2018-06-25T09:45:12.246Z,3.30
2018-06-25T09:46:12.205Z,3.40
2018-06-25T09:47:12.218Z,3.90
2018-06-25T09:48:12.151Z,3.70
2018-06-25T09:49:12.123Z,4.00
2018-06-25T09:50:12.193Z,4.10
2018-06-25T09:51:58.102Z,3.80
2018-06-25T09:52:58.019Z,3.90
2018-06-25T09:53:58.040Z,4.10
2018-06-25T09:54:58.387Z,3.70
2018-06-25T09:55:58.190Z,3.30
2018-06-25T09:56:58.210Z,3.40
2018-06-25T09:57:57.876Z,3.60
2018-06-25T09:58:58.926Z,2.90
2018-06-25T09:59:57.788Z,3.40
2018-06-25T10:00:57.897Z,3.40
2018-06-25T10:01:57.753Z,3.40
2018-06-25T10:02:57.853Z,3.60
2018-06-25T10:03:57.722Z,3.00
2018-06-25T10:04:57.802Z,3.10
2018-06-25T10:05:57.666Z,3.50
2018-06-25T10:06:57.769Z,3.70
2018-06-25T10:07:57.657Z,3.40
2018-06-25T10:09:43.551Z,3.20
2018-06-25T10:10:43.527Z,3.10
2018-06-25T10:12:36.861Z,3.80
2018-06-25T10:13:36.712Z,3.10
2018-06-25T10:14:36.790Z,3.70
2018-06-25T10:15:36.659Z,3.50
2018-06-25T10:16:36.705Z,3.60
2018-06-25T10:17:36.649Z,3.50
2018-06-25T10:18:36.720Z,3.30
2018-06-25T10:19:36.563Z,3.00
2018-06-25T10:20:36.645Z,3.10
2018-06-25T10:21:36.515Z,4.60
2018-06-25T10:22:36.643Z,3.10
2018-06-25T10:23:36.462Z,2.90
2018-06-25T10:24:36.555Z,2.60
2018-06-25T10:25:36.408Z,3.60
2018-06-25T10:26:36.483Z,3.80
2018-06-25T10:27:36.361Z,3.90
2018-06-25T10:28:36.489Z,3.40
2018-06-25T10:29:36.303Z,4.00
2018-06-25T10:30:36.390Z,3.90
2018-06-25T10:31:36.248Z,3.50
2018-06-25T10:32:36.305Z,3.80
2018-06-25T10:34:22.027Z,4.00
2018-06-25T10:35:21.832Z,3.90
2018-06-25T10:36:21.787Z,3.90
2018-06-25T10:37:21.916Z,3.30
2018-06-25T10:38:21.736Z,3.30
2018-06-25T10:39:21.845Z,3.40
2018-06-25T10:40:21.679Z,3.80
2018-06-25T10:41:21.824Z,3.10
2018-06-25T10:42:21.700Z,3.10
2018-06-25T10:43:21.751Z,3.20
2018-06-25T10:44:21.586Z,3.20
2018-06-25T10:45:21.654Z,3.10
2018-06-25T10:47:07.797Z,3.40
2018-06-25T10:48:07.584Z,3.30
2018-06-25T10:49:07.557Z,3.30
2018-06-25T10:50:07.678Z,2.90
2018-06-25T10:51:07.532Z,3.30
2018-06-25T10:52:07.558Z,3.20
2018-06-25T10:53:07.458Z,3.10
2018-06-25T10:54:07.583Z,3.40
2018-06-25T10:55:07.384Z,3.60
2018-06-25T10:56:07.488Z,3.40
2018-06-25T10:57:53.105Z,3.60
2018-06-25T10:58:52.898Z,2.60
2018-06-25T10:59:53.160Z,2.80
2018-06-25T11:00:52.847Z,3.10
2018-06-25T11:01:52.825Z,3.00
2018-06-25T11:02:52.793Z,3.00
2018-06-25T11:03:52.767Z,2.80
2018-06-25T11:04:52.755Z,3.20
2018-06-25T11:05:52.816Z,2.60
2018-06-25T11:06:52.691Z,2.90
2018-06-25T11:07:52.666Z,2.90
2018-06-25T11:08:52.744Z,3.20
2018-06-25T11:10:38.419Z,3.10
2018-06-25T11:11:38.486Z,2.40
2018-06-25T11:12:38.413Z,2.50
2018-06-25T11:13:38.365Z,3.40
2018-06-25T11:14:38.270Z,2.70
2018-06-25T11:15:38.237Z,2.60
2018-06-25T11:16:38.213Z,2.60
2018-06-25T11:17:38.199Z,2.40
2018-06-25T11:18:38.277Z,2.70
2018-06-25T11:19:38.156Z,2.80
2018-06-25T11:20:38.167Z,2.70
2018-06-25T11:21:38.105Z,2.60
2018-06-25T11:22:38.060Z,2.60
2018-06-25T11:23:38.027Z,2.50
2018-06-25T11:24:38.043Z,2.50
2018-06-25T11:25:37.991Z,2.80
2018-06-25T11:26:38.036Z,2.60
2018-06-25T11:28:24.476Z,2.60
2018-06-25T11:29:24.115Z,2.60
2018-06-25T11:30:23.688Z,2.50
2018-06-25T11:31:23.682Z,2.70
2018-06-25T11:32:23.673Z,3.60
2018-06-25T11:33:23.650Z,2.80
2018-06-25T11:34:23.596Z,3.10
2018-06-25T11:35:23.652Z,2.40
2018-06-25T11:36:23.547Z,3.80
2018-06-25T11:37:23.557Z,2.30
2018-06-25T11:38:23.524Z,2.40
2018-06-25T11:39:23.465Z,2.70
2018-06-25T11:40:23.444Z,2.90
2018-06-25T11:41:23.423Z,3.00
2018-06-25T11:43:09.546Z,2.80
2018-06-25T11:44:09.491Z,3.20
2018-06-25T11:45:09.484Z,3.30
2018-06-25T11:46:09.503Z,2.90
2018-06-25T11:47:09.423Z,2.90
2018-06-25T11:48:09.421Z,2.90
2018-06-25T11:49:09.442Z,2.80
2018-06-25T11:50:09.346Z,3.20
2018-06-25T11:51:09.343Z,3.00
2018-06-25T11:52:09.293Z,3.40
2018-06-25T11:53:09.285Z,3.40
2018-06-25T11:54:54.924Z,2.70
2018-06-25T11:55:54.800Z,2.70
2018-06-25T11:56:54.817Z,2.60
2018-06-25T11:57:54.791Z,2.70
2018-06-25T11:58:54.685Z,2.70
2018-06-25T11:59:54.865Z,2.70
2018-06-25T12:00:54.612Z,2.50
2018-06-25T12:01:54.630Z,2.10
2018-06-25T12:02:54.623Z,2.70
2018-06-25T12:03:54.543Z,2.30
2018-06-25T12:04:54.642Z,2.80
2018-06-25T12:05:54.509Z,2.80
2018-06-25T13:08:24.655Z,3.00
2018-06-25T13:09:24.713Z,2.90
2018-06-25T13:10:24.575Z,2.40
2018-06-25T13:11:24.533Z,2.30
2018-06-25T13:12:24.536Z,2.60
2018-06-25T13:14:24.467Z,2.50
2018-06-25T13:15:24.444Z,2.70
2018-06-25T13:16:24.426Z,2.50
2018-06-25T13:17:24.400Z,2.50
2018-06-25T13:18:24.440Z,2.40
2018-06-25T13:19:24.350Z,2.80
2018-06-25T13:20:24.337Z,2.30
2018-06-25T13:21:24.298Z,2.60
2018-06-25T13:22:24.284Z,2.50
2018-06-25T13:23:24.249Z,2.30
2018-06-25T13:24:24.315Z,2.50
2018-06-25T13:25:24.200Z,2.30
2018-06-25T13:26:24.171Z,2.50
2018-06-25T13:28:14.305Z,2.70
2018-06-25T13:29:14.256Z,2.20
2018-06-25T13:30:14.237Z,2.50
2018-06-25T13:31:14.376Z,2.40
2018-06-25T13:32:14.167Z,2.70
2018-06-25T13:33:14.133Z,2.60
2018-06-25T13:34:14.100Z,2.60
2018-06-25T13:35:14.079Z,2.40
2018-06-25T13:36:14.065Z,2.30
2018-06-25T13:37:14.027Z,2.30
2018-06-25T13:38:14.211Z,2.60
2018-06-25T13:39:13.972Z,2.80
2018-06-25T13:40:13.965Z,2.40
2018-06-25T13:41:13.934Z,2.70
2018-06-25T13:42:13.908Z,2.90
2018-06-25T13:43:13.890Z,3.10
2018-06-25T13:44:13.867Z,2.90
2018-06-25T13:46:00.187Z,2.50
2018-06-25T13:46:59.981Z,2.60
2018-06-25T13:48:00.056Z,2.60
2018-06-25T13:48:59.874Z,2.40
2018-06-25T13:50:00.104Z,2.70
2018-06-25T13:50:59.819Z,2.20
2018-06-25T13:51:59.805Z,2.40
2018-06-25T13:52:59.814Z,2.80
2018-06-25T13:53:59.848Z,2.70
2018-06-25T13:54:59.722Z,2.70
2018-06-25T13:55:59.742Z,3.10
2018-06-25T13:56:59.762Z,3.50
2018-06-25T13:57:59.664Z,3.00
2018-06-25T13:59:45.479Z,2.90
2018-06-25T14:00:45.390Z,2.40
2018-06-25T14:01:45.388Z,2.50
2018-06-25T14:02:45.435Z,2.50
2018-06-25T14:03:45.511Z,2.20
2018-06-25T14:04:45.468Z,2.50
2018-06-25T14:05:45.160Z,2.50
2018-06-25T14:06:45.149Z,2.40
2018-06-25T14:07:45.127Z,2.50
2018-06-25T14:08:45.059Z,2.90
2018-06-25T14:09:45.110Z,2.60
2018-06-25T14:10:45.032Z,2.30
2018-06-25T14:12:31.069Z,3.20
2018-06-25T14:13:31.067Z,2.90
2018-06-25T14:14:31.018Z,2.60
2018-06-25T14:15:31.098Z,3.00
2018-06-25T14:16:31.029Z,2.70
2018-06-25T14:17:30.920Z,3.00
2018-06-25T14:18:30.896Z,2.80
2018-06-25T14:19:30.874Z,2.80
2018-06-25T14:20:30.837Z,3.00
2018-06-25T14:21:30.829Z,3.00
2018-06-25T14:22:30.798Z,2.90
2018-06-25T14:23:30.825Z,2.80
2018-06-25T14:24:30.828Z,2.50
2018-06-25T14:25:30.763Z,2.80
2018-06-25T14:27:16.948Z,2.70
2018-06-25T14:28:16.952Z,2.70
2018-06-25T14:29:16.840Z,2.50
2018-06-25T14:30:16.805Z,2.20
2018-06-25T14:31:16.779Z,2.50
2018-06-25T14:32:16.775Z,5.60
2018-06-25T14:33:16.756Z,2.90
2018-06-25T14:34:16.710Z,3.00
2018-06-25T14:36:06.436Z,3.00
2018-06-25T14:37:06.367Z,2.50
2018-06-25T14:38:06.386Z,2.00
2018-06-25T14:39:06.324Z,2.10
2018-06-25T14:40:06.326Z,2.20
2018-06-25T14:41:06.263Z,2.10
2018-06-25T14:42:06.248Z,2.00
2018-06-25T14:43:06.217Z,2.40
2018-06-25T14:44:06.205Z,2.50
2018-06-25T14:45:06.306Z,2.60
2018-06-25T14:46:06.146Z,2.40
2018-06-25T14:47:06.118Z,2.60
2018-06-25T14:48:06.217Z,2.10
2018-06-25T14:49:06.132Z,2.20
2018-06-25T14:50:06.053Z,2.30
2018-06-25T14:51:06.018Z,2.40
2018-06-25T14:52:06.008Z,2.50
2018-06-25T14:53:05.974Z,2.10
2018-06-25T14:54:05.957Z,2.80
2018-06-25T14:55:05.922Z,2.20
2018-06-25T14:56:05.900Z,2.70
2018-06-25T14:57:05.877Z,2.30
2018-06-25T14:58:05.873Z,2.30
2018-06-25T14:59:06.015Z,2.30
2018-06-25T15:00:05.805Z,2.20
2018-06-25T15:01:05.877Z,2.60
2018-06-25T15:02:05.755Z,2.90
2018-06-25T15:03:05.736Z,2.40
2018-06-25T15:04:05.701Z,3.10
2018-06-25T15:05:51.369Z,2.60
2018-06-25T15:06:51.317Z,2.60
2018-06-25T15:07:51.246Z,2.40
2018-06-25T15:08:52.261Z,2.30
2018-06-25T15:09:51.237Z,2.50
2018-06-25T15:10:51.255Z,2.50
2018-06-25T15:11:51.153Z,2.20
2018-06-25T15:12:51.157Z,2.20
2018-06-25T15:13:51.113Z,2.50
2018-06-25T15:14:51.175Z,2.40
2018-06-25T15:15:51.564Z,2.40
2018-06-25T15:42:14.900Z,2.50
2018-06-25T16:07:16.012Z,2.90
2018-06-25T16:07:42.177Z,2.00
2018-06-25T16:59:16.121Z,3.10
2018-06-25T17:00:16.131Z,2.20
2018-06-25T17:01:16.054Z,2.40
2018-06-25T17:02:16.030Z,2.30
2018-06-25T17:03:16.001Z,2.40
2018-06-25T17:04:16.047Z,2.20
2018-06-25T17:05:15.956Z,2.30
2018-06-25T17:06:15.970Z,2.30
2018-06-25T17:07:15.931Z,2.20
2018-06-25T17:08:16.906Z,2.30
2018-06-25T17:09:15.874Z,2.00
2018-06-25T17:10:15.883Z,1.90
2018-06-25T17:11:15.808Z,2.20
2018-06-25T17:12:15.814Z,1.90
2018-06-25T17:13:15.788Z,2.20
2018-06-25T17:14:15.815Z,2.50
2018-06-25T17:16:01.254Z,2.50
2018-06-25T17:17:01.152Z,1.90
2018-06-25T17:18:01.095Z,2.20
2018-06-25T17:19:01.093Z,2.10
2018-06-25T17:20:01.066Z,2.30
2018-06-25T17:21:01.125Z,2.10
2018-06-25T17:22:01.360Z,2.30
2018-06-25T17:23:01.238Z,2.40
2018-06-25T17:24:01.193Z,2.30
2018-06-25T17:25:01.332Z,2.20
2018-06-25T17:26:01.227Z,2.00
2018-06-25T17:27:00.890Z,2.50
2018-06-25T17:28:00.971Z,2.40
2018-06-25T17:29:00.842Z,2.40
2018-06-25T17:30:00.871Z,2.40
2018-06-25T17:31:00.787Z,2.40
2018-06-25T17:32:00.887Z,2.30
2018-06-25T17:33:00.744Z,2.70
2018-06-25T17:34:00.779Z,2.50
2018-06-25T17:35:46.209Z,2.60
2018-06-25T17:36:46.113Z,2.60
2018-06-25T17:37:46.072Z,2.30
2018-06-25T17:38:46.061Z,1.90
2018-06-25T17:39:46.028Z,2.30
2018-06-25T17:40:46.128Z,2.60
2018-06-25T17:41:45.978Z,2.50
2018-06-25T17:42:46.016Z,2.40
2018-06-25T17:43:45.972Z,2.30
2018-06-25T17:44:46.002Z,2.70
2018-06-25T17:45:45.887Z,2.30
2018-06-25T17:46:45.864Z,2.90
2018-06-25T17:47:31.502Z,2.60
2018-06-25T17:48:31.345Z,2.40
2018-06-25T17:49:31.448Z,2.20
2018-06-25T17:50:31.341Z,2.50
2018-06-25T17:51:31.336Z,2.50
2018-06-25T17:52:31.222Z,2.70
2018-06-25T17:53:31.362Z,2.70
2018-06-25T17:54:31.233Z,2.70
2018-06-25T17:55:31.268Z,2.40
2018-06-25T17:56:31.132Z,2.70
2018-06-25T17:57:31.229Z,2.30
2018-06-25T17:58:31.099Z,2.80
2018-06-25T18:00:16.834Z,3.20
2018-06-25T18:01:16.771Z,2.90
2018-06-25T18:02:16.698Z,2.70
2018-06-25T18:03:16.775Z,2.50
2018-06-25T18:04:16.679Z,2.70
2018-06-25T18:05:16.721Z,2.80
2018-06-25T18:06:16.574Z,2.40
2018-06-25T18:07:16.721Z,2.40
2018-06-25T18:08:16.565Z,2.50
2018-06-25T18:09:16.608Z,2.20
2018-06-25T18:10:16.484Z,2.90
2018-06-25T18:11:16.551Z,2.90
2018-06-25T18:12:16.449Z,2.30
2018-06-25T18:13:16.404Z,2.50
2018-06-25T18:14:17.461Z,2.40
2018-06-25T18:15:16.368Z,2.80
2018-06-25T18:16:16.461Z,3.00
2018-06-25T18:17:16.315Z,2.50
2018-06-25T18:18:16.361Z,2.70
2018-06-25T18:19:16.262Z,2.60
2018-06-25T18:20:16.377Z,2.40
2018-06-25T18:21:16.228Z,2.80
2018-06-25T18:22:16.281Z,2.60
2018-06-25T18:23:16.170Z,2.80
2018-06-25T18:24:16.316Z,2.50
2018-06-25T18:25:16.144Z,2.50
2018-06-25T18:26:16.143Z,2.80
2018-06-25T18:27:16.077Z,2.60
2018-06-25T18:28:16.170Z,2.70
2018-06-25T18:29:16.050Z,2.70
2018-06-25T18:30:16.137Z,2.40
2018-06-25T18:31:15.979Z,3.00
2018-06-25T18:32:16.069Z,2.80
2018-06-25T18:33:15.946Z,2.60
2018-06-25T18:34:21.887Z,2.50
2018-06-25T18:35:15.907Z,2.80
2018-06-25T18:36:21.935Z,3.00
2018-06-25T18:37:15.834Z,2.70
2018-06-25T18:38:17.935Z,2.50
2018-06-25T18:39:15.796Z,2.70
2018-06-25T18:40:15.881Z,2.50
2018-06-25T18:41:15.750Z,2.70
2018-06-25T18:43:01.966Z,2.70
2018-06-25T18:44:02.035Z,2.50
2018-06-25T18:45:01.773Z,2.50
2018-06-25T18:46:01.822Z,2.60
2018-06-25T18:47:01.743Z,2.80
2018-06-25T18:48:02.151Z,2.50
2018-06-25T18:49:01.699Z,2.70
2018-06-25T18:50:01.732Z,3.10
2018-06-25T18:51:01.728Z,3.00
2018-06-25T18:52:01.727Z,2.60
2018-06-25T18:53:51.279Z,3.50
2018-06-25T18:54:51.293Z,2.60
2018-06-25T18:55:51.208Z,2.90
2018-06-25T18:56:51.348Z,2.90
2018-06-25T18:57:51.171Z,2.80
2018-06-25T18:59:04.065Z,2.90
2018-06-25T18:59:51.142Z,2.70
2018-06-25T21:00:22.234Z,5.20
2018-06-25T21:01:19.450Z,4.00
2018-06-25T21:02:19.375Z,4.30
2018-06-25T21:03:19.437Z,3.80
2018-06-25T21:04:19.317Z,4.30
2018-06-25T21:05:19.367Z,4.00
2018-06-25T21:06:19.346Z,4.20
2018-06-25T21:07:19.321Z,3.80
2018-06-25T21:08:19.241Z,4.00
2018-06-25T21:09:19.290Z,4.00
2018-06-25T21:10:19.190Z,4.00
2018-06-25T21:11:19.189Z,4.20
2018-06-25T21:12:19.123Z,4.20
2018-06-25T21:13:19.215Z,4.10
2018-06-25T21:14:19.069Z,4.10
2018-06-25T21:15:19.097Z,3.80
2018-06-25T21:16:19.040Z,3.80
2018-06-25T21:17:19.018Z,4.60
2018-06-25T21:18:18.985Z,3.90
2018-06-25T21:19:19.035Z,3.90
2018-06-25T21:20:18.935Z,4.00
2018-06-25T21:21:18.961Z,4.10
2018-06-25T21:22:04.517Z,4.50
2018-06-25T21:23:04.522Z,4.50
2018-06-25T21:24:04.424Z,4.20
2018-06-25T21:25:04.427Z,4.40
2018-06-25T21:26:04.392Z,4.00
2018-06-25T21:27:04.451Z,4.30
2018-06-25T21:28:04.354Z,4.00
2018-06-25T21:29:04.314Z,4.10
2018-06-25T21:30:04.401Z,4.00
2018-06-25T21:31:04.263Z,4.20
2018-06-25T21:32:04.313Z,4.00
2018-06-25T21:33:04.206Z,4.50
2018-06-25T21:34:50.291Z,4.90
2018-06-25T21:35:50.380Z,4.00
2018-06-25T21:36:50.229Z,4.60
2018-06-25T21:37:50.344Z,4.30
2018-06-25T21:38:50.168Z,4.20
2018-06-25T21:39:50.239Z,4.10
2018-06-25T21:41:35.871Z,4.10
2018-06-25T21:42:35.647Z,4.40
2018-06-25T21:43:35.621Z,4.40
2018-06-25T21:44:35.728Z,4.00
2018-06-25T21:45:35.569Z,4.30
2018-06-25T21:46:35.664Z,4.10
2018-06-25T21:47:35.545Z,4.50
2018-06-25T21:48:35.660Z,4.10
2018-06-25T21:49:35.471Z,4.40
2018-06-25T21:50:36.598Z,4.30
2018-06-25T21:51:35.442Z,4.00
2018-06-25T21:52:35.491Z,4.60
2018-06-25T21:53:35.380Z,4.60
2018-06-25T21:54:35.501Z,4.40
2018-06-25T21:55:35.350Z,4.30
2018-06-25T21:56:35.408Z,4.10
2018-06-25T21:57:35.293Z,4.50
2018-06-25T21:58:35.433Z,4.40
2018-06-25T21:59:35.214Z,4.70
2018-06-25T22:00:35.234Z,4.60
2018-06-25T22:01:35.207Z,4.40
2018-06-25T22:02:35.257Z,4.60
2018-06-25T22:03:35.135Z,4.40
2018-06-25T22:04:35.145Z,4.20
2018-06-25T22:05:35.073Z,4.40